Time;durP1;ratioP1;P1;durP2;ratioP2;P2;SDS_P1;SDS_P2;PMS_P1;PMS_P2;Temp;Humidity;BMP_temperature;BMP_pressure;BME280_temperature;BME280_humidity;BME280_pressure;Samples;Min_cycle;Max_cycle;Signal;HPM_P1;HPM_P2
2023/07/15 00:02:21;;;;;;;4.88;2.97;;;20.50;61.50;;;;;;5116125;27;20387;-71
2023/07/15 00:04:48;;;;;;;4.65;2.72;;;20.40;61.60;;;;;;5111948;27;20380;-71
2023/07/15 00:07:15;;;;;;;6.32;2.95;;;20.40;61.60;;;;;;5100754;27;20043;-67
2023/07/15 00:09:42;;;;;;;4.80;2.80;;;20.30;61.90;;;;;;5117913;27;20062;-65
2023/07/15 00:12:10;;;;;;;5.50;3.00;;;20.40;61.90;;;;;;5109476;27;20048;-70
2023/07/15 00:14:38;;;;;;;4.35;2.75;;;20.30;61.90;;;;;;5110634;27;20051;-70
2023/07/15 00:17:08;;;;;;;3.17;2.33;;;20.30;61.90;;;;;;5116405;27;20052;-64
2023/07/15 00:19:35;;;;;;;4.68;2.88;;;20.40;61.70;;;;;;5115561;27;20044;-66
2023/07/15 00:22:02;;;;;;;5.03;2.60;;;20.30;61.70;;;;;;5116655;27;20059;-70
2023/07/15 00:24:30;;;;;;;4.93;2.40;;;20.30;61.80;;;;;;5116243;27;20143;-71
2023/07/15 00:27:07;;;;;;;6.75;3.03;;;20.20;62.00;;;;;;5119438;27;20051;-71
2023/07/15 00:29:35;;;;;;;4.30;2.42;;;20.20;62.30;;;;;;5113542;27;20058;-72
2023/07/15 00:32:04;;;;;;;6.22;2.75;;;20.10;62.30;;;;;;5115599;27;20035;-71
2023/07/15 00:34:32;;;;;;;5.95;2.53;;;20.10;62.40;;;;;;5116044;27;20639;-72
2023/07/15 00:37:00;;;;;;;4.95;2.45;;;20.10;62.40;;;;;;5110322;27;20052;-71
2023/07/15 00:39:26;;;;;;;6.68;2.88;;;20.10;62.40;;;;;;5114965;27;20057;-72
2023/07/15 00:41:57;;;;;;;4.85;2.70;;;20.10;62.40;;;;;;5115655;27;20063;-70
2023/07/15 00:44:24;;;;;;;4.38;2.60;;;20.10;62.40;;;;;;5098952;27;20053;-72
2023/07/15 00:47:21;;;;;;;5.57;2.35;;;20.00;62.50;;;;;;5115997;27;20055;-71
2023/07/15 00:49:49;;;;;;;3.88;2.38;;;19.90;62.60;;;;;;5114009;27;20039;-71
2023/07/15 00:52:20;;;;;;;4.32;2.17;;;19.90;62.70;;;;;;5096527;27;20047;-71
2023/07/15 00:54:50;;;;;;;4.35;2.63;;;19.80;62.80;;;;;;5113762;27;20040;-71
2023/07/15 00:57:22;;;;;;;4.15;2.40;;;19.80;62.80;;;;;;5111278;27;20048;-72
2023/07/15 00:59:52;;;;;;;5.72;2.13;;;19.70;62.80;;;;;;5114377;27;20339;-72
2023/07/15 01:02:21;;;;;;;4.75;2.40;;;19.60;63.00;;;;;;5112490;27;20150;-72
2023/07/15 01:04:48;;;;;;;4.13;2.30;;;19.60;63.00;;;;;;5093220;27;20108;-73
2023/07/15 01:07:16;;;;;;;4.32;2.50;;;19.60;63.10;;;;;;5112460;27;20058;-72
2023/07/15 01:09:44;;;;;;;4.82;2.35;;;19.60;62.90;;;;;;5096683;27;20042;-72
2023/07/15 01:12:12;;;;;;;3.58;2.08;;;19.60;63.10;;;;;;5094381;27;20043;-72
2023/07/15 01:14:40;;;;;;;4.93;2.30;;;19.60;63.10;;;;;;5082767;27;20055;-72
2023/07/15 01:17:08;;;;;;;3.85;2.28;;;19.50;63.20;;;;;;5107041;27;20485;-71
2023/07/15 01:19:37;;;;;;;4.85;2.47;;;19.50;63.40;;;;;;5109703;27;20039;-73
2023/07/15 01:22:05;;;;;;;4.65;2.60;;;19.50;63.40;;;;;;5117703;27;20055;-72
2023/07/15 01:24:35;;;;;;;4.60;2.60;;;19.50;63.50;;;;;;5093919;27;20035;-73
2023/07/15 01:27:03;;;;;;;;;;;19.40;63.70;;;;;;5092534;27;20071;-71
2023/07/15 01:29:30;;;;;;;4.85;2.45;;;19.30;63.80;;;;;;5110725;27;20398;-72
2023/07/15 01:31:57;;;;;;;4.40;2.47;;;19.30;64.00;;;;;;5110604;27;20052;-72
2023/07/15 01:34:24;;;;;;;3.65;2.55;;;19.30;64.10;;;;;;5095185;27;20039;-74
2023/07/15 01:36:51;;;;;;;4.75;2.58;;;19.30;64.20;;;;;;5117159;27;20043;-73
2023/07/15 01:39:18;;;;;;;3.97;2.53;;;19.30;64.40;;;;;;5119090;27;20503;-73
2023/07/15 01:41:47;;;;;;;5.40;2.90;;;19.20;64.50;;;;;;5117863;27;20047;-73
2023/07/15 01:44:14;;;;;;;4.65;2.88;;;19.20;64.50;;;;;;5100493;27;20054;-73
2023/07/15 01:46:41;;;;;;;4.50;2.90;;;19.20;64.60;;;;;;5118947;27;20042;-72
2023/07/15 01:49:09;;;;;;;5.38;2.80;;;19.20;64.60;;;;;;5112797;27;20051;-72
2023/07/15 01:51:36;;;;;;;4.75;2.92;;;19.20;64.70;;;;;;5116174;27;20067;-72
2023/07/15 01:54:03;;;;;;;5.18;2.70;;;19.10;64.80;;;;;;5118810;27;20043;-73
2023/07/15 01:56:30;;;;;;;5.28;2.60;;;19.10;64.90;;;;;;5117992;27;20070;-73
2023/07/15 01:58:58;;;;;;;4.60;2.78;;;19.10;65.00;;;;;;5096022;27;20123;-71
2023/07/15 02:01:26;;;;;;;4.40;2.40;;;19.10;65.00;;;;;;5117562;27;20062;-73
2023/07/15 02:03:53;;;;;;;4.25;2.45;;;19.10;65.10;;;;;;5090837;27;20059;-72
2023/07/15 02:06:20;;;;;;;3.58;2.47;;;19.10;65.10;;;;;;5116998;27;20119;-72
2023/07/15 02:08:47;;;;;;;4.22;2.50;;;19.00;65.30;;;;;;5117605;27;20059;-73
2023/07/15 02:11:14;;;;;;;4.63;2.35;;;19.00;65.40;;;;;;5100313;27;20123;-72
2023/07/15 02:13:41;;;;;;;4.18;2.60;;;19.00;65.50;;;;;;5115613;27;20063;-72
2023/07/15 02:16:09;;;;;;;5.13;2.97;;;18.90;65.60;;;;;;5119267;27;20054;-72
2023/07/15 02:18:36;;;;;;;5.38;2.58;;;18.90;65.60;;;;;;5117629;27;20114;-73
2023/07/15 02:21:04;;;;;;;4.40;2.72;;;18.90;65.70;;;;;;5118244;27;20047;-71
2023/07/15 02:23:31;;;;;;;6.75;3.20;;;18.90;65.80;;;;;;5099510;27;20048;-73
2023/07/15 02:25:58;;;;;;;4.93;3.15;;;18.90;65.80;;;;;;5111560;27;20048;-72
2023/07/15 02:28:26;;;;;;;7.20;3.10;;;18.90;66.00;;;;;;5117838;27;20421;-73
2023/07/15 02:30:55;;;;;;;4.32;2.78;;;18.80;66.20;;;;;;5119566;27;20042;-71
2023/07/15 02:33:24;;;;;;;5.13;2.83;;;18.80;66.40;;;;;;5096952;27;20096;-73
2023/07/15 02:35:51;;;;;;;3.97;2.75;;;18.70;66.50;;;;;;5118338;27;20508;-74
2023/07/15 02:38:18;;;;;;;4.78;2.90;;;18.70;66.70;;;;;;5115025;27;20047;-73
2023/07/15 02:40:47;;;;;;;6.22;3.10;;;18.70;66.60;;;;;;5117575;27;20036;-73
2023/07/15 02:43:14;;;;;;;5.87;2.73;;;18.60;66.90;;;;;;5107935;27;20044;-74
2023/07/15 02:45:41;;;;;;;5.45;2.80;;;18.60;66.90;;;;;;5116584;27;20502;-73
2023/07/15 02:48:08;;;;;;;6.55;2.95;;;18.60;67.00;;;;;;5119367;27;20070;-73
2023/07/15 02:50:36;;;;;;;4.50;2.67;;;18.60;67.10;;;;;;5118391;27;20047;-72
2023/07/15 02:53:03;;;;;;;5.32;3.00;;;18.60;67.10;;;;;;5117820;27;20047;-72
2023/07/15 02:55:31;;;;;;;5.55;3.30;;;18.60;67.20;;;;;;5089948;27;20529;-73
2023/07/15 02:57:58;;;;;;;4.85;3.15;;;18.50;67.30;;;;;;5093653;28;20594;-75
2023/07/15 03:00:25;;;;;;;7.40;3.17;;;18.50;67.30;;;;;;5117151;27;20040;-73
2023/07/15 03:02:52;;;;;;;6.43;3.40;;;18.50;67.40;;;;;;5096450;28;20097;-71
2023/07/15 03:05:29;;;;;;;6.25;3.40;;;18.40;67.50;;;;;;5104682;28;20083;-71
2023/07/15 03:07:57;;;;;;;5.18;3.15;;;18.40;67.50;;;;;;5110024;28;20448;-70
2023/07/15 03:10:25;;;;;;;7.47;3.13;;;18.30;67.60;;;;;;5097114;28;20080;-73
2023/07/15 03:12:51;;;;;;;5.15;2.80;;;18.30;67.60;;;;;;5115284;28;20048;-69
2023/07/15 03:15:20;;;;;;;3.75;2.72;;;18.30;67.50;;;;;;5115637;28;20046;-73
2023/07/15 03:17:47;;;;;;;5.05;2.95;;;18.30;67.70;;;;;;5118306;28;20054;-73
2023/07/15 03:20:35;;;;;;;4.82;3.22;;;18.30;67.70;;;;;;5102519;27;20417;-72
2023/07/15 03:23:04;;;;;;;6.05;3.40;;;18.20;67.80;;;;;;5095565;27;20052;-72
2023/07/15 03:25:31;;;;;;;6.28;3.45;;;18.30;67.80;;;;;;5115048;27;20092;-74
2023/07/15 03:27:59;;;;;;;5.20;2.90;;;18.20;67.90;;;;;;5109570;27;20051;-72
2023/07/15 03:30:26;;;;;;;5.35;3.00;;;18.20;68.00;;;;;;5114437;27;20054;-73
2023/07/15 03:32:56;;;;;;;6.65;3.03;;;18.20;68.00;;;;;;5116543;27;20618;-72
2023/07/15 03:35:23;;;;;;;6.55;3.28;;;18.20;68.10;;;;;;5113447;27;20074;-73
2023/07/15 03:37:50;;;;;;;6.28;3.33;;;18.20;68.20;;;;;;5105869;27;20089;-73
2023/07/15 03:40:18;;;;;;;4.20;2.75;;;18.20;68.30;;;;;;5115217;27;20048;-73
2023/07/15 03:42:45;;;;;;;6.45;3.50;;;18.10;68.60;;;;;;5115833;27;20051;-73
2023/07/15 03:45:12;;;;;;;6.28;3.50;;;18.20;68.00;;;;;;5118729;27;20050;-72
2023/07/15 03:47:39;;;;;;;5.32;3.50;;;18.30;67.30;;;;;;5117050;27;20072;-73
2023/07/15 03:50:09;;;;;;;5.53;3.33;;;18.30;67.20;;;;;;5120602;27;20513;-73
2023/07/15 03:52:36;;;;;;;5.57;3.55;;;18.40;66.90;;;;;;5120340;27;20123;-73
2023/07/15 03:55:03;;;;;;;4.60;2.67;;;18.30;67.20;;;;;;5119653;27;20096;-72
2023/07/15 03:57:47;;;;;;;6.40;3.22;;;18.30;67.30;;;;;;5109431;27;20043;-72
2023/07/15 04:00:17;;;;;;;4.43;2.83;;;18.20;67.50;;;;;;5112698;27;20136;-73
2023/07/15 04:02:44;;;;;;;5.70;3.33;;;18.20;67.60;;;;;;5119785;27;20052;-73
2023/07/15 04:05:12;;;;;;;6.38;2.97;;;18.20;67.70;;;;;;5120863;27;20970;-73
2023/07/15 04:07:40;;;;;;;4.90;3.10;;;18.10;68.00;;;;;;5123354;27;20141;-73
2023/07/15 04:10:08;;;;;;;6.28;3.22;;;18.10;68.20;;;;;;5117046;27;20078;-72
2023/07/15 04:12:36;;;;;;;5.03;3.10;;;18.10;68.10;;;;;;5120212;27;20051;-73
2023/07/15 04:15:03;;;;;;;5.25;2.90;;;18.20;68.00;;;;;;5116476;27;20047;-73
2023/07/15 04:17:30;;;;;;;5.57;3.38;;;18.20;68.20;;;;;;5115383;27;20090;-73
2023/07/15 04:19:57;;;;;;;5.05;2.80;;;18.10;68.30;;;;;;5121246;27;20498;-73
2023/07/15 04:22:24;;;;;;;5.95;3.45;;;18.10;68.50;;;;;;5120688;27;20047;-73
2023/07/15 04:24:51;;;;;;;6.00;3.42;;;18.10;68.60;;;;;;5120486;27;20067;-70
2023/07/15 04:27:18;;;;;;;6.00;3.22;;;18.10;68.60;;;;;;5116415;27;20058;-73
2023/07/15 04:29:47;;;;;;;5.28;3.15;;;18.10;68.50;;;;;;5116354;27;20461;-73
2023/07/15 04:32:13;;;;;;;5.22;3.38;;;18.10;68.60;;;;;;5112721;27;20383;-73
2023/07/15 04:34:40;;;;;;;4.85;2.90;;;18.10;68.70;;;;;;5119256;27;20066;-73
2023/07/15 04:37:07;;;;;;;6.32;3.20;;;18.10;68.60;;;;;;5119709;27;20477;-73
2023/07/15 04:39:34;;;;;;;6.93;3.22;;;18.10;68.60;;;;;;5120850;27;20031;-73
2023/07/15 04:42:01;;;;;;;5.53;2.80;;;18.20;68.40;;;;;;5119052;27;20045;-72
2023/07/15 04:44:28;;;;;;;4.68;2.95;;;18.20;68.20;;;;;;5117048;27;20364;-73
2023/07/15 04:46:56;;;;;;;4.32;2.95;;;18.20;68.00;;;;;;5117887;27;20046;-73
2023/07/15 04:49:23;;;;;;;6.55;3.40;;;18.30;68.00;;;;;;5117486;27;20058;-73
2023/07/15 04:51:50;;;;;;;5.13;3.45;;;18.30;67.90;;;;;;5119154;27;20043;-72
2023/07/15 04:54:17;;;;;;;5.88;3.40;;;18.30;68.00;;;;;;5114766;27;20039;-73
2023/07/15 04:56:44;;;;;;;6.22;3.42;;;18.30;68.20;;;;;;5114983;27;20462;-72
2023/07/15 04:59:11;;;;;;;5.43;3.42;;;18.30;68.10;;;;;;5112090;27;20058;-73
2023/07/15 05:01:38;;;;;;;6.72;3.33;;;18.40;68.10;;;;;;5117989;27;20044;-74
2023/07/15 05:04:06;;;;;;;5.72;3.50;;;18.40;68.10;;;;;;5116460;27;20047;-74
2023/07/15 05:06:33;;;;;;;5.80;3.40;;;18.40;68.20;;;;;;5120181;27;20054;-72
2023/07/15 05:09:00;;;;;;;4.00;3.08;;;18.50;67.90;;;;;;5116934;27;20533;-73
2023/07/15 05:11:27;;;;;;;4.43;2.70;;;18.60;67.60;;;;;;5118388;27;20113;-72
2023/07/15 05:13:54;;;;;;;5.97;3.20;;;18.60;67.40;;;;;;5108272;27;20145;-72
2023/07/15 05:16:21;;;;;;;3.85;2.53;;;18.60;67.50;;;;;;5118404;27;20051;-73
2023/07/15 05:18:48;;;;;;;4.03;2.55;;;18.60;67.50;;;;;;5115296;27;20103;-73
2023/07/15 05:21:17;;;;;;;4.95;2.85;;;18.60;67.60;;;;;;5120488;27;20058;-73
2023/07/15 05:23:44;;;;;;;4.32;2.40;;;18.60;67.70;;;;;;5117155;27;20047;-74
2023/07/15 05:26:11;;;;;;;3.95;2.63;;;18.60;67.80;;;;;;5115775;27;20055;-74
2023/07/15 05:28:38;;;;;;;4.90;2.67;;;18.70;67.80;;;;;;5116337;27;20052;-73
2023/07/15 05:31:05;;;;;;;3.80;2.60;;;18.70;67.80;;;;;;5114047;27;20055;-73
2023/07/15 05:33:32;;;;;;;5.00;2.67;;;18.70;67.90;;;;;;5116479;27;20047;-73
2023/07/15 05:35:59;;;;;;;4.97;2.33;;;18.90;67.70;;;;;;5117975;27;20398;-74
2023/07/15 05:38:27;;;;;;;6.35;2.95;;;18.90;66.70;;;;;;5118575;27;20040;-73
2023/07/15 05:40:56;;;;;;;5.05;2.80;;;18.90;67.80;;;;;;5118958;27;20054;-74
2023/07/15 05:43:23;;;;;;;4.70;2.63;;;19.00;67.40;;;;;;5115527;27;20062;-73
2023/07/15 05:45:49;;;;;;;4.85;2.80;;;19.00;67.50;;;;;;5115045;27;20051;-73
2023/07/15 05:48:16;;;;;;;4.60;2.63;;;19.00;67.90;;;;;;5117284;27;20040;-73
2023/07/15 05:50:43;;;;;;;4.07;2.50;;;19.00;67.80;;;;;;5119897;27;20058;-73
2023/07/15 05:53:10;;;;;;;5.47;2.67;;;19.00;67.80;;;;;;5115882;27;20050;-75
2023/07/15 05:55:38;;;;;;;3.72;2.70;;;19.10;67.80;;;;;;5116430;27;20417;-73
2023/07/15 05:58:09;;;;;;;4.40;2.65;;;19.10;68.10;;;;;;5116669;27;20055;-73
2023/07/15 06:00:37;;;;;;;4.43;2.58;;;19.10;68.40;;;;;;5117902;27;20100;-73
2023/07/15 06:03:04;;;;;;;6.10;2.90;;;19.10;68.10;;;;;;5113658;27;20047;-73
2023/07/15 06:05:31;;;;;;;4.55;2.60;;;19.20;67.70;;;;;;5117165;27;20576;-72
2023/07/15 06:07:58;;;;;;;5.13;2.78;;;19.10;68.20;;;;;;5113177;27;20074;-73
2023/07/15 06:10:25;;;;;;;4.22;2.63;;;19.30;68.10;;;;;;5115189;27;20143;-73
2023/07/15 06:12:53;;;;;;;4.80;2.90;;;19.30;67.70;;;;;;5112916;27;20055;-71
2023/07/15 06:15:20;;;;;;;5.57;2.97;;;19.40;68.20;;;;;;5116595;27;20039;-73
2023/07/15 06:17:47;;;;;;;5.25;3.10;;;19.50;68.20;;;;;;5118557;27;20043;-74
2023/07/15 06:20:14;;;;;;;4.68;2.47;;;19.60;67.70;;;;;;5114222;27;20042;-74
2023/07/15 06:22:40;;;;;;;5.50;3.15;;;19.60;67.30;;;;;;5119066;27;20076;-74
2023/07/15 06:25:08;;;;;;;6.28;2.70;;;19.70;68.00;;;;;;5113675;27;20043;-73
2023/07/15 06:27:35;;;;;;;6.25;3.00;;;19.80;67.60;;;;;;5116553;27;20055;-74
2023/07/15 06:30:06;;;;;;;4.03;2.70;;;19.90;67.40;;;;;;5117311;27;20070;-74
2023/07/15 06:32:33;;;;;;;5.18;2.72;;;19.90;67.00;;;;;;5117177;27;20176;-74
2023/07/15 06:35:00;;;;;;;5.47;2.70;;;20.00;67.10;;;;;;5113254;27;20031;-73
2023/07/15 06:37:27;;;;;;;5.18;2.80;;;20.00;68.30;;;;;;5112939;27;20058;-73
2023/07/15 06:39:53;;;;;;;5.35;2.72;;;20.10;68.10;;;;;;5117276;27;20392;-73
2023/07/15 06:42:20;;;;;;;4.93;2.83;;;20.20;67.80;;;;;;5116700;27;20047;-74
2023/07/15 06:44:47;;;;;;;5.38;3.10;;;20.40;68.30;;;;;;5116497;27;20050;-74
2023/07/15 06:47:15;;;;;;;5.60;3.00;;;20.50;67.70;;;;;;5116518;27;20062;-74
2023/07/15 06:49:42;;;;;;;4.57;2.90;;;20.60;67.60;;;;;;5120708;27;20054;-74
2023/07/15 06:52:09;;;;;;;4.90;2.85;;;20.80;66.80;;;;;;5116175;27;20050;-73
2023/07/15 06:54:36;;;;;;;5.38;2.92;;;20.90;66.10;;;;;;5115902;27;20047;-73
2023/07/15 06:57:03;;;;;;;6.82;3.20;;;21.00;66.20;;;;;;5096993;28;20151;-73
2023/07/15 06:59:30;;;;;;;4.43;2.60;;;21.10;66.10;;;;;;5115879;28;20050;-74
2023/07/15 07:01:57;;;;;;;4.57;2.78;;;21.10;67.40;;;;;;5116788;27;20472;-74
2023/07/15 07:04:25;;;;;;;4.65;2.60;;;21.00;67.10;;;;;;5115497;27;20059;-74
2023/07/15 07:06:52;;;;;;;4.75;2.78;;;21.20;66.40;;;;;;5098010;28;20050;-73
2023/07/15 07:09:19;;;;;;;4.75;2.90;;;21.40;66.60;;;;;;5116357;28;20409;-74
2023/07/15 07:11:46;;;;;;;6.78;3.10;;;21.60;66.00;;;;;;5114048;28;20048;-74
2023/07/15 07:14:13;;;;;;;7.18;3.10;;;21.90;65.00;;;;;;5111198;28;20043;-74
2023/07/15 07:16:40;;;;;;;5.88;3.03;;;22.10;64.40;;;;;;5117458;28;20092;-76
2023/07/15 07:19:07;;;;;;;4.25;2.80;;;22.40;64.00;;;;;;5098145;28;20055;-77
2023/07/15 07:21:35;;;;;;;6.90;2.55;;;22.50;63.00;;;;;;5118328;27;20050;-76
2023/07/15 07:24:02;;;;;;;6.30;3.03;;;22.80;62.40;;;;;;5117345;28;20618;-75
2023/07/15 07:26:29;;;;;;;5.63;3.20;;;22.90;62.40;;;;;;5114374;28;20050;-75
2023/07/15 07:28:56;;;;;;;4.50;2.38;;;23.20;61.50;;;;;;5113202;28;20055;-74
2023/07/15 07:31:22;;;;;;;4.22;3.17;;;23.50;60.80;;;;;;5120038;28;20047;-73
2023/07/15 07:33:49;;;;;;;6.38;3.03;;;23.80;59.80;;;;;;5110612;28;20044;-75
2023/07/15 07:36:16;;;;;;;4.60;2.55;;;24.00;59.10;;;;;;5118432;27;20047;-74
2023/07/15 07:38:45;;;;;;;4.78;2.70;;;24.20;57.80;;;;;;5089378;28;20138;-72
2023/07/15 07:41:13;;;;;;;6.50;2.70;;;24.30;58.70;;;;;;5114833;28;20059;-74
2023/07/15 07:43:40;;;;;;;5.22;2.67;;;24.40;58.10;;;;;;5108746;28;20047;-73
2023/07/15 07:46:10;;;;;;;4.90;2.70;;;24.50;59.00;;;;;;5114800;28;20051;-73
2023/07/15 07:48:37;;;;;;;4.15;2.30;;;24.50;58.90;;;;;;5113728;28;20047;-73
2023/07/15 07:51:04;;;;;;;4.75;2.65;;;24.60;58.40;;;;;;5115118;28;20116;-73
2023/07/15 07:53:31;;;;;;;4.30;2.60;;;24.70;57.90;;;;;;5118279;28;20491;-73
2023/07/15 07:55:59;;;;;;;4.30;2.55;;;24.90;57.90;;;;;;5116471;28;20047;-74
2023/07/15 07:58:26;;;;;;;4.07;2.22;;;25.20;57.50;;;;;;5115859;28;20506;-74
2023/07/15 08:00:53;;;;;;;5.78;2.70;;;25.30;57.50;;;;;;5114649;28;20051;-72
2023/07/15 08:03:20;;;;;;;5.03;3.20;;;25.40;57.50;;;;;;5115278;28;20053;-73
2023/07/15 08:05:48;;;;;;;5.28;3.30;;;25.40;57.20;;;;;;5115608;27;20050;-73
2023/07/15 08:08:16;;;;;;;5.32;3.40;;;25.50;56.60;;;;;;5116084;27;20059;-73
2023/07/15 08:10:43;;;;;;;6.65;3.58;;;25.40;56.80;;;;;;5118630;27;20055;-73
2023/07/15 08:13:11;;;;;;;6.32;3.70;;;25.20;56.60;;;;;;5103811;27;20092;-73
2023/07/15 08:15:38;;;;;;;5.95;3.83;;;25.20;56.30;;;;;;5118956;27;20036;-73
2023/07/15 08:18:06;;;;;;;6.00;3.67;;;25.40;56.30;;;;;;5113196;27;20058;-73
2023/07/15 08:20:33;;;;;;;6.18;4.05;;;25.60;56.10;;;;;;5112840;27;20051;-72
2023/07/15 08:23:00;;;;;;;6.85;4.80;;;25.70;54.60;;;;;;5120244;27;20066;-72
2023/07/15 08:25:27;;;;;;;8.65;5.07;;;25.80;54.90;;;;;;5119509;27;20043;-73
2023/07/15 08:27:54;;;;;;;9.07;5.10;;;26.00;54.30;;;;;;5110121;27;20395;-72
2023/07/15 08:30:22;;;;;;;7.90;4.40;;;26.20;54.10;;;;;;5118436;27;20130;-72
2023/07/15 08:32:49;;;;;;;5.53;4.20;;;26.30;54.00;;;;;;5120435;27;20063;-72
2023/07/15 08:35:16;;;;;;;5.72;4.25;;;26.40;53.60;;;;;;5117987;27;20043;-73
2023/07/15 08:37:43;;;;;;;6.70;4.07;;;26.40;53.50;;;;;;5120520;27;20422;-73
2023/07/15 08:40:11;;;;;;;7.18;4.53;;;26.30;53.30;;;;;;5118468;27;20074;-71
2023/07/15 08:42:38;;;;;;;7.47;4.03;;;26.30;53.60;;;;;;5118419;27;20047;-73
2023/07/15 08:45:06;;;;;;;6.88;3.55;;;26.40;53.50;;;;;;5116019;27;20410;-73
2023/07/15 08:47:36;;;;;;;7.93;3.63;;;26.30;53.40;;;;;;5116873;27;20043;-72
2023/07/15 08:50:04;;;;;;;;;;;26.30;53.30;;;;;;5113997;27;20070;-72
2023/07/15 08:52:31;;;;;;;9.30;3.55;;;26.30;53.90;;;;;;5120067;27;20020;-73
2023/07/15 08:55:01;;;;;;;7.95;3.40;;;26.40;54.50;;;;;;5113616;27;20043;-73
2023/07/15 08:57:28;;;;;;;;;;;26.40;54.50;;;;;;5118869;27;20097;-72
2023/07/15 08:59:56;;;;;;;5.82;3.03;;;26.50;54.20;;;;;;5115081;27;19934;-73
2023/07/15 09:02:23;;;;;;;5.50;3.45;;;26.60;54.40;;;;;;5091360;27;20071;-72
2023/07/15 09:04:51;;;;;;;5.55;3.47;;;26.90;54.80;;;;;;5112628;27;20589;-72
2023/07/15 09:07:26;;;;;;;6.03;3.43;;;27.20;54.00;;;;;;5116325;27;20039;-72
2023/07/15 09:09:52;;;;;;;6.53;3.78;;;27.60;52.30;;;;;;5118034;27;20058;-71
2023/07/15 09:12:23;;;;;;;6.45;4.50;;;27.70;51.80;;;;;;5118733;27;20047;-73
2023/07/15 09:14:51;;;;;;;7.18;5.25;;;27.90;50.50;;;;;;5119845;27;20051;-73
2023/07/15 09:17:20;;;;;;;9.45;5.65;;;28.00;49.90;;;;;;5117698;27;20064;-73
2023/07/15 09:19:48;;;;;;;8.30;5.00;;;28.10;48.40;;;;;;5120874;27;20043;-72
2023/07/15 09:22:16;;;;;;;8.32;4.68;;;28.00;48.80;;;;;;5116863;27;22221;-72
2023/07/15 09:24:44;;;;;;;9.18;7.15;;;27.90;48.70;;;;;;5118116;27;20051;-72
2023/07/15 09:27:11;;;;;;;9.40;6.93;;;27.90;49.00;;;;;;5117976;27;20055;-72
2023/07/15 09:29:38;;;;;;;10.10;6.25;;;27.90;48.40;;;;;;5118813;27;20149;-73
2023/07/15 09:32:07;;;;;;;9.55;7.35;;;27.80;48.60;;;;;;5116848;27;20447;-73
2023/07/15 09:34:39;;;;;;;10.40;6.63;;;27.80;49.00;;;;;;5119790;27;20050;-73
2023/07/15 09:37:06;;;;;;;9.45;7.05;;;27.80;48.70;;;;;;5108558;27;20144;-73
2023/07/15 09:39:36;;;;;;;10.82;8.75;;;27.90;48.50;;;;;;5120044;27;20047;-72
2023/07/15 09:42:05;;;;;;;12.48;8.90;;;28.10;48.50;;;;;;5118298;27;20040;-71
2023/07/15 09:44:39;;;;;;;10.48;7.07;;;28.20;48.30;;;;;;5116919;27;20074;-71
2023/07/15 09:47:07;;;;;;;10.93;7.80;;;28.40;47.90;;;;;;5112918;27;20046;-73
2023/07/15 09:49:35;;;;;;;10.25;7.07;;;28.60;47.20;;;;;;5111487;27;20069;-72
2023/07/15 09:52:04;;;;;;;11.50;7.68;;;28.60;47.20;;;;;;5118852;27;20143;-72
2023/07/15 09:54:33;;;;;;;8.35;4.97;;;28.90;46.30;;;;;;5095957;27;20052;-72
2023/07/15 09:57:05;;;;;;;6.43;3.70;;;28.90;46.10;;;;;;5119101;27;20550;-73
2023/07/15 09:59:42;;;;;;;6.05;3.40;;;29.00;45.50;;;;;;5120808;27;20049;-72
2023/07/15 10:02:19;;;;;;;6.15;3.83;;;29.10;45.40;;;;;;5116648;27;20561;-72
2023/07/15 10:04:47;;;;;;;7.15;4.13;;;29.30;44.50;;;;;;5114257;27;20044;-73
2023/07/15 10:07:14;;;;;;;11.37;8.43;;;29.30;44.70;;;;;;5116493;27;20051;-73
2023/07/15 10:09:41;;;;;;;12.00;9.63;;;29.20;45.40;;;;;;5118133;27;20051;-73
2023/07/15 10:12:10;;;;;;;10.35;8.40;;;29.20;45.50;;;;;;5117164;27;20059;-72
2023/07/15 10:14:38;;;;;;;8.55;7.38;;;29.20;45.30;;;;;;5117942;27;20058;-73
2023/07/15 10:17:09;;;;;;;9.07;7.28;;;29.30;44.80;;;;;;5111654;27;20050;-73
2023/07/15 10:19:40;;;;;;;9.63;6.10;;;29.50;44.50;;;;;;5119739;27;20093;-73
2023/07/15 10:22:14;;;;;;;5.82;4.10;;;29.50;44.10;;;;;;5114386;27;20051;-72
2023/07/15 10:24:43;;;;;;;6.20;4.40;;;29.30;44.50;;;;;;5115240;27;20050;-71
2023/07/15 10:27:11;;;;;;;10.60;9.50;;;29.10;44.70;;;;;;5116656;27;20121;-72
2023/07/15 10:29:39;;;;;;;10.52;8.95;;;28.90;45.00;;;;;;5115289;27;20142;-74
2023/07/15 10:32:11;;;;;;;12.27;10.93;;;28.80;45.40;;;;;;5109015;27;20123;-73
2023/07/15 10:34:41;;;;;;;12.43;9.60;;;28.80;45.20;;;;;;5117620;27;20050;-71
2023/07/15 10:37:12;;;;;;;10.98;9.45;;;28.70;45.00;;;;;;5113279;27;20654;-73
2023/07/15 10:39:39;;;;;;;11.95;10.25;;;28.70;45.10;;;;;;5115647;27;20108;-73
2023/07/15 10:42:12;;;;;;;14.40;12.50;;;28.80;45.20;;;;;;5115589;27;20055;-75
2023/07/15 10:44:40;;;;;;;15.07;12.80;;;28.70;45.00;;;;;;5117015;27;20035;-72
2023/07/15 10:47:08;;;;;;;16.10;13.63;;;28.70;45.30;;;;;;5117393;27;20054;-74
2023/07/15 10:49:36;;;;;;;14.50;12.70;;;28.70;45.80;;;;;;5117525;27;20046;-73
2023/07/15 10:52:04;;;;;;;12.18;10.63;;;28.80;45.40;;;;;;5118339;27;20055;-70
2023/07/15 10:54:33;;;;;;;9.50;7.45;;;28.70;45.60;;;;;;5118175;27;20144;-73
2023/07/15 10:57:06;;;;;;;;;;;28.90;45.00;;;;;;5117920;27;20071;-72
2023/07/15 10:59:36;;;;;;;6.35;3.90;;;29.00;44.00;;;;;;5117830;27;19968;-73
2023/07/15 11:02:04;;;;;;;5.57;3.35;;;29.10;43.90;;;;;;5116503;27;20066;-72
2023/07/15 11:04:31;;;;;;;4.95;3.72;;;29.00;43.90;;;;;;5117756;27;20040;-71
2023/07/15 11:07:00;;;;;;;6.57;3.65;;;29.00;44.00;;;;;;5116371;28;20048;-73
2023/07/15 11:09:27;;;;;;;5.85;3.35;;;28.90;43.80;;;;;;5113190;28;20047;-76
2023/07/15 11:11:54;;;;;;;4.80;3.00;;;28.70;44.90;;;;;;5117944;28;20118;-74
2023/07/15 11:14:22;;;;;;;4.80;3.20;;;28.60;44.90;;;;;;5117441;28;20051;-73
2023/07/15 11:16:53;;;;;;;5.67;3.60;;;28.50;45.30;;;;;;5120891;28;20047;-74
2023/07/15 11:19:20;;;;;;;5.32;4.13;;;28.40;45.80;;;;;;5081526;28;20122;-74
2023/07/15 11:21:47;;;;;;;6.15;4.18;;;28.40;46.20;;;;;;5118250;28;20058;-73
2023/07/15 11:24:15;;;;;;;6.90;5.00;;;28.40;45.90;;;;;;5114624;28;20065;-72
2023/07/15 11:26:42;;;;;;;7.28;4.93;;;28.30;46.10;;;;;;5116964;28;20044;-73
2023/07/15 11:29:17;;;;;;;6.65;4.72;;;28.30;46.40;;;;;;5116017;27;20066;-72
2023/07/15 11:31:46;;;;;;;6.03;4.10;;;28.30;46.30;;;;;;5115697;28;20047;-73
2023/07/15 11:34:16;;;;;;;6.40;3.95;;;28.40;45.80;;;;;;5119136;28;20916;-74
2023/07/15 11:36:43;;;;;;;5.35;3.08;;;28.40;45.90;;;;;;5113273;28;20043;-73
2023/07/15 11:39:11;;;;;;;6.85;3.60;;;28.30;45.90;;;;;;5117128;28;20046;-72
2023/07/15 11:41:39;;;;;;;4.80;3.50;;;28.30;46.20;;;;;;5120977;27;20040;-73
2023/07/15 11:44:08;;;;;;;4.57;3.00;;;28.30;46.20;;;;;;5120848;27;20450;-74
2023/07/15 11:46:36;;;;;;;5.63;3.00;;;28.40;45.70;;;;;;5121440;27;20051;-75
2023/07/15 11:49:03;;;;;;;5.40;2.95;;;28.50;45.50;;;;;;5120460;27;20048;-73
2023/07/15 11:51:33;;;;;;;5.53;3.00;;;28.40;45.60;;;;;;5119745;27;20047;-74
2023/07/15 11:54:00;;;;;;;5.07;2.78;;;28.40;45.70;;;;;;5119963;27;20063;-73
2023/07/15 11:56:38;;;;;;;5.43;2.95;;;28.40;45.70;;;;;;5118926;27;20050;-73
2023/07/15 11:59:07;;;;;;;9.52;3.13;;;28.40;45.50;;;;;;5116714;27;20040;-73
2023/07/15 12:01:34;;;;;;;;;;;28.50;45.70;;;;;;5121782;27;20092;-74
2023/07/15 12:04:01;;;;;;;5.30;3.00;;;28.50;45.60;;;;;;5119248;27;19919;-74
2023/07/15 12:06:31;;;;;;;5.38;2.88;;;28.40;45.70;;;;;;5119444;27;20073;-76
2023/07/15 12:09:07;;;;;;;5.57;2.80;;;28.50;46.00;;;;;;5121699;27;20525;-73
2023/07/15 12:11:35;;;;;;;5.43;3.13;;;28.40;46.10;;;;;;5108053;27;20075;-74
2023/07/15 12:14:03;;;;;;;5.97;3.08;;;28.40;46.10;;;;;;5107589;27;20062;-72
2023/07/15 12:16:31;;;;;;;4.77;2.90;;;28.40;46.20;;;;;;5120004;27;20399;-73
2023/07/15 12:18:59;;;;;;;4.53;2.75;;;28.40;46.30;;;;;;5100307;27;20047;-72
2023/07/15 12:21:26;;;;;;;4.85;2.70;;;28.40;46.40;;;;;;5121997;27;20459;-72
2023/07/15 12:23:56;;;;;;;3.58;2.50;;;28.40;46.30;;;;;;5122399;27;20065;-73
2023/07/15 12:26:23;;;;;;;7.05;3.28;;;28.30;46.70;;;;;;5119336;27;20047;-72
2023/07/15 12:28:50;;;;;;;5.53;3.30;;;28.30;46.80;;;;;;5120099;27;20063;-74
2023/07/15 12:31:18;;;;;;;5.70;3.10;;;28.20;47.10;;;;;;5118159;27;20046;-73
2023/07/15 12:33:45;;;;;;;4.35;2.85;;;28.20;47.40;;;;;;5120462;27;20074;-73
2023/07/15 12:36:15;;;;;;;6.45;3.08;;;28.10;47.60;;;;;;5121805;27;20044;-72
2023/07/15 12:38:43;;;;;;;5.47;3.15;;;28.10;48.10;;;;;;5120935;27;20501;-73
2023/07/15 12:41:12;;;;;;;5.55;3.47;;;28.00;48.40;;;;;;5120814;27;20043;-74
2023/07/15 12:43:42;;;;;;;4.47;3.17;;;28.00;48.80;;;;;;5118341;27;20122;-73
2023/07/15 12:46:10;;;;;;;4.68;3.20;;;28.00;49.20;;;;;;5116762;27;20039;-73
2023/07/15 12:48:37;;;;;;;6.18;3.22;;;28.00;48.80;;;;;;5120049;27;20038;-73
2023/07/15 12:51:05;;;;;;;4.38;2.90;;;27.90;49.20;;;;;;5119184;27;20057;-74
2023/07/15 12:53:32;;;;;;;5.63;3.58;;;27.90;49.30;;;;;;5115667;27;20053;-74